Terminal Aerodrome Forecast
Issued by NWS

Home | Current Version | Previous Version | Text Only | Print | Product List | Glossary On
Versions: 1 2 3 4 5 6 7 8 9 10 11 12 13 14 15 16
000
FTUS43 KDVN 020400 AAB
TAFBRL
TAF AMD
KBRL 020400Z 0204/0224 06007KT P6SM VCSH SCT030 BKN060
     FM020700 06005KT P6SM BKN025 BKN070
     FM020900 08007KT 5SM BR BKN020
     FM021300 05008KT P6SM SCT025 BKN100=

USA.gov is the U.S. government's official web portal to all federal, state and local government web resources and services.